Terminal Aerodrome Forecast
Issued by NWS

Home | Current Version | Previous Version | Graphics & Text | Print | Product List | Glossary On
Versions: 1 2 3 4 5 6 7 8 9 10 11 12 13 14 15 16 17 18 19 20 21
891
FTUS41 KCLE 201123
TAFFDY
TAF
KFDY 201123Z 2012/2112 20016G24KT P6SM VCSH BKN080
     FM201600 20020G32KT P6SM BKN050
     FM210000 19016G24KT P6SM SCT060 BKN200
     FM210500 20016G24KT P6SM VCSH BKN050
     FM210700 21015G22KT 4SM SHRA BKN025 OVC040
     FM211100 27011KT 3SM -RA BR BKN008 OVC020=

USA.gov is the U.S. government's official web portal to all federal, state and local government web resources and services.